Time;durP1;ratioP1;P1;durP2;ratioP2;P2;SDS_P1;SDS_P2;PMS_P1;PMS_P2;Temp;Humidity;BMP_temperature;BMP_pressure;BME280_temperature;BME280_humidity;BME280_pressure;Samples;Min_cycle;Max_cycle;Signal;HPM_P1;HPM_P2
2023/08/11 00:00:13;;;;;;;;;;;;;;;17.94;82.21;101950.41;5024468;28;20135;-56
2023/08/11 00:02:39;;;;;;;;;;;;;;;17.90;82.04;101950.38;5022104;28;19909;-55
2023/08/11 00:05:05;;;;;;;;;;;;;;;17.86;82.41;101953.81;5023836;28;20100;-55
2023/08/11 00:07:30;;;;;;;;;;;;;;;17.81;82.76;101955.50;5021714;28;20201;-56
2023/08/11 00:09:55;;;;;;;;;;;;;;;17.79;82.56;101953.72;5024237;28;19963;-56
2023/08/11 00:12:20;;;;;;;;;;;;;;;17.80;82.39;101961.66;5020337;28;19909;-56
2023/08/11 00:14:46;;;;;;;;;;;;;;;17.78;82.53;101955.47;5022771;28;19972;-56
2023/08/11 00:17:11;;;;;;;;;;;;;;;17.77;82.44;101955.44;5023416;28;19988;-55
2023/08/11 00:19:36;;;;;;;;;;;;;;;17.75;82.50;101955.44;5024251;28;19933;-55
2023/08/11 00:22:02;;;;;;;;;;;;;;;17.74;82.53;101943.09;5021778;28;19921;-56
2023/08/11 00:24:27;;;;;;;;;;;;;;;17.71;82.61;101948.34;5021929;28;19920;-56
2023/08/11 00:26:52;;;;;;;;;;;;;;;17.67;82.33;101951.81;5023805;28;20206;-55
2023/08/11 00:29:17;;;;;;;;;;;;;;;17.61;82.55;101955.28;5023594;28;20118;-55
2023/08/11 00:31:45;;;;;;;;;;;;;;;17.58;83.08;101951.72;5022596;28;20066;-55
2023/08/11 00:34:10;;;;;;;;;;;;;;;17.53;82.85;101957.81;5021571;28;19948;-55
2023/08/11 00:36:36;;;;;;;;;;;;;;;17.46;83.12;101961.22;5023966;28;19929;-55
2023/08/11 00:39:01;;;;;;;;;;;;;;;17.41;83.37;101954.13;5024259;28;19905;-55
2023/08/11 00:41:26;;;;;;;;;;;;;;;17.38;83.51;101955.88;5020337;28;19913;-56
2023/08/11 00:43:52;;;;;;;;;;;;;;;17.34;83.37;101947.91;5020103;28;19910;-55
2023/08/11 00:46:19;;;;;;;;;;;;;;;17.30;83.57;101952.22;5023212;28;19914;-55
2023/08/11 00:48:50;;;;;;;;;;;;;;;17.28;83.71;101942.53;5022568;28;19924;-55
2023/08/11 00:51:15;;;;;;;;;;;;;;;17.26;84.00;101933.75;5002353;28;19948;-55
2023/08/11 00:53:41;;;;;;;;;;;;;;;17.25;84.12;101937.22;5022642;28;19909;-56
2023/08/11 00:56:07;;;;;;;;;;;;;;;17.25;84.02;101931.97;5022108;28;19909;-56
2023/08/11 00:58:33;;;;;;;;;;;;;;;17.21;84.11;101924.03;5021927;28;19987;-55
2023/08/11 01:00:58;;;;;;;;;;;;;;;17.17;84.17;101916.94;5021819;28;19941;-56
2023/08/11 01:03:24;;;;;;;;;;;;;;;17.16;84.36;101920.47;5019813;28;19964;-56
2023/08/11 01:05:57;;;;;;;;;;;;;;;17.15;84.66;101918.69;5023274;28;19959;-55
2023/08/11 01:08:44;;;;;;;;;;;;;;;17.13;84.55;101917.78;5023907;28;19917;-56
2023/08/11 01:11:21;;;;;;;;;;;;;;;17.13;84.60;101915.16;5021938;28;19914;-55
2023/08/11 01:13:52;;;;;;;;;;;;;;;17.08;84.09;101914.19;5023076;28;19915;-55
2023/08/11 01:16:18;;;;;;;;;;;;;;;17.06;84.41;101910.66;5021056;28;19916;-55
2023/08/11 01:18:43;;;;;;;;;;;;;;;17.02;84.24;101909.72;5021660;28;19917;-55
2023/08/11 01:21:13;;;;;;;;;;;;;;;17.00;84.60;101910.56;5020244;28;19909;-55
2023/08/11 01:23:40;;;;;;;;;;;;;;;16.97;84.76;101905.25;5021984;28;20048;-55
2023/08/11 01:26:06;;;;;;;;;;;;;;;16.93;84.35;101908.69;5022070;28;19955;-56
2023/08/11 01:28:33;;;;;;;;;;;;;;;16.90;84.58;101903.38;5023441;28;20141;-55
2023/08/11 01:30:58;;;;;;;;;;;;;;;16.89;85.17;101906.88;5022271;28;20056;-55
2023/08/11 01:33:23;;;;;;;;;;;;;;;16.88;84.90;101905.13;5021585;28;19955;-55
2023/08/11 01:35:48;;;;;;;;;;;;;;;16.85;84.86;101895.41;5022801;28;19909;-55
2023/08/11 01:38:13;;;;;;;;;;;;;;;16.84;84.93;101902.44;5022843;28;19910;-55
2023/08/11 01:40:39;;;;;;;;;;;;;;;16.84;85.13;101904.16;5021118;28;19909;-55
2023/08/11 01:43:05;;;;;;;;;;;;;;;16.83;84.91;101911.19;5021584;28;19913;-55
2023/08/11 01:45:30;;;;;;;;;;;;;;;16.81;84.81;101904.97;5004811;28;19909;-55
2023/08/11 01:47:56;;;;;;;;;;;;;;;16.83;85.05;101913.81;5020736;28;19936;-55
2023/08/11 01:50:21;;;;;;;;;;;;;;;16.80;84.82;101913.75;5020710;28;19956;-56
2023/08/11 01:52:48;;;;;;;;;;;;;;;16.73;85.18;101901.38;5020072;28;19949;-55
2023/08/11 01:55:13;;;;;;;;;;;;;;;16.70;85.37;101906.59;5021316;28;19913;-55
2023/08/11 01:57:41;;;;;;;;;;;;;;;16.64;85.65;101907.38;5022239;28;19909;-56
2023/08/11 02:00:09;;;;;;;;;;;;;;;16.62;84.89;101897.69;5003806;28;19948;-55
2023/08/11 02:02:35;;;;;;;;;;;;;;;16.59;85.35;101898.50;5019758;28;19910;-55
2023/08/11 02:05:00;;;;;;;;;;;;;;;16.56;85.53;101895.84;5021665;28;21352;-55
2023/08/11 02:07:25;;;;;;;;;;;;;;;16.55;85.33;101890.56;5021414;28;20062;-55
2023/08/11 02:09:54;;;;;;;;;;;;;;;16.54;85.40;101891.41;5022846;28;20167;-56
2023/08/11 02:12:19;;;;;;;;;;;;;;;16.52;85.55;101889.66;5021812;28;19913;-55
2023/08/11 02:14:44;;;;;;;;;;;;;;;16.50;85.82;101891.38;5021121;28;20143;-55
2023/08/11 02:17:09;;;;;;;;;;;;;;;16.48;85.72;101889.56;5022548;28;19917;-55
2023/08/11 02:19:35;;;;;;;;;;;;;;;16.48;85.88;101886.94;5021401;28;20163;-55
2023/08/11 02:22:00;;;;;;;;;;;;;;;16.48;85.57;101886.94;5019569;28;20002;-56
2023/08/11 02:24:25;;;;;;;;;;;;;;;16.44;85.51;101882.50;5021631;28;19978;-56
2023/08/11 02:26:51;;;;;;;;;;;;;;;16.41;86.07;101883.34;5020743;28;20040;-55
2023/08/11 02:29:16;;;;;;;;;;;;;;;16.35;85.96;101880.59;5022428;28;19917;-55
2023/08/11 02:31:41;;;;;;;;;;;;;;;16.31;86.55;101879.66;5025783;28;19952;-55
2023/08/11 02:34:07;;;;;;;;;;;;;;;16.29;86.64;101880.50;5025057;28;19913;-56
2023/08/11 02:36:32;;;;;;;;;;;;;;;16.26;86.49;101881.31;5025391;28;19909;-56
2023/08/11 02:38:57;;;;;;;;;;;;;;;16.25;86.36;101891.81;5024487;28;19984;-55
2023/08/11 02:41:22;;;;;;;;;;;;;;;16.20;86.77;101894.38;5024714;28;19943;-55
2023/08/11 02:43:47;;;;;;;;;;;;;;;16.18;86.93;101901.38;5026551;28;19949;-55
2023/08/11 02:46:13;;;;;;;;;;;;;;;16.15;86.88;101891.66;5024972;28;19909;-55
2023/08/11 02:48:38;;;;;;;;;;;;;;;16.11;86.64;101894.22;5023828;28;20048;-55
2023/08/11 02:51:04;;;;;;;;;;;;;;;16.08;86.96;101895.06;5024724;28;19963;-55
2023/08/11 02:53:29;;;;;;;;;;;;;;;16.08;86.73;101905.56;5024004;28;19909;-55
2023/08/11 02:55:54;;;;;;;;;;;;;;;16.06;87.02;101902.03;5024345;28;19932;-55
2023/08/11 02:58:19;;;;;;;;;;;;;;;16.05;87.19;101905.50;5024224;28;20058;-56
2023/08/11 03:00:46;;;;;;;;;;;;;;;16.04;87.04;101903.72;5025082;28;19916;-55
2023/08/11 03:03:12;;;;;;;;;;;;;;;16.03;87.19;101901.94;5025695;28;20154;-55
2023/08/11 03:05:37;;;;;;;;;;;;;;;16.02;86.91;101900.22;5023327;28;19909;-55
2023/08/11 03:08:02;;;;;;;;;;;;;;;16.01;87.08;101897.56;5024086;28;20134;-55
2023/08/11 03:10:28;;;;;;;;;;;;;;;16.01;87.05;101898.44;5024597;28;19905;-55
2023/08/11 03:12:53;;;;;;;;;;;;;;;16.02;87.04;101894.94;5026147;28;19977;-55
2023/08/11 03:15:19;;;;;;;;;;;;;;;15.99;86.45;101884.38;5024005;28;20155;-55
2023/08/11 03:17:44;;;;;;;;;;;;;;;15.89;87.14;101882.41;5023322;28;20122;-55
2023/08/11 03:20:12;;;;;;;;;;;;;;;15.83;87.38;101885.84;5024546;28;19913;-55
2023/08/11 03:22:38;;;;;;;;;;;;;;;15.81;87.18;101884.91;5024434;28;19917;-55
2023/08/11 03:25:04;;;;;;;;;;;;;;;15.78;87.60;101883.09;5024011;28;19905;-55
2023/08/11 03:27:29;;;;;;;;;;;;;;;15.78;87.84;101885.72;5023627;28;19917;-56
2023/08/11 03:29:54;;;;;;;;;;;;;;;15.77;87.87;101883.03;5023180;28;19925;-55
2023/08/11 03:32:19;;;;;;;;;;;;;;;15.73;88.24;101892.63;5024229;28;19913;-55
2023/08/11 03:34:45;;;;;;;;;;;;;;;15.71;88.04;101889.06;5007420;28;19917;-55
2023/08/11 03:37:10;;;;;;;;;;;;;;;15.69;88.55;101880.28;5022466;28;19965;-55
2023/08/11 03:39:35;;;;;;;;;;;;;;;15.67;88.10;101886.34;5023794;28;19957;-55
2023/08/11 03:42:00;;;;;;;;;;;;;;;15.63;88.19;101888.06;5023832;28;20130;-57
2023/08/11 03:44:25;;;;;;;;;;;;;;;15.60;88.25;101888.00;5022277;28;19909;-55
2023/08/11 03:46:51;;;;;;;;;;;;;;;15.56;88.04;101884.41;5022175;28;19916;-55
2023/08/11 03:49:17;;;;;;;;;;;;;;;15.51;88.09;101877.28;5023192;28;19925;-55
2023/08/11 03:51:42;;;;;;;;;;;;;;;15.45;88.76;101873.72;5023489;28;20032;-55
2023/08/11 03:54:07;;;;;;;;;;;;;;;15.43;88.48;101872.78;5023636;28;20139;-55
2023/08/11 03:56:32;;;;;;;;;;;;;;;15.45;88.65;101873.72;5021344;28;19930;-55
2023/08/11 03:58:58;;;;;;;;;;;;;;;15.44;88.81;101871.94;5023198;28;19919;-55
2023/08/11 04:01:23;;;;;;;;;;;;;;;15.44;88.88;101868.44;5022988;28;19921;-55
2023/08/11 04:03:48;;;;;;;;;;;;;;;15.44;88.72;101874.56;5025006;28;20055;-55
2023/08/11 04:06:13;;;;;;;;;;;;;;;15.42;88.47;101871.00;5022260;28;19986;-55
2023/08/11 04:08:39;;;;;;;;;;;;;;;15.41;88.86;101869.25;5022403;28;19948;-55
2023/08/11 04:11:04;;;;;;;;;;;;;;;15.41;89.06;101866.63;5023985;28;19944;-55
2023/08/11 04:13:29;;;;;;;;;;;;;;;15.42;89.35;101876.25;5024388;28;19933;-55
2023/08/11 04:15:54;;;;;;;;;;;;;;;15.41;88.57;101873.59;5022350;28;20150;-55
2023/08/11 04:18:20;;;;;;;;;;;;;;;15.39;88.82;101870.94;5023105;28;20044;-55
2023/08/11 04:20:46;;;;;;;;;;;;;;;15.36;89.20;101873.50;5022641;28;19948;-55
2023/08/11 04:23:11;;;;;;;;;;;;;;;15.32;89.13;101874.28;5022084;28;19909;-56
2023/08/11 04:25:36;;;;;;;;;;;;;;;15.32;89.61;101882.16;5022033;28;20052;-55
2023/08/11 04:28:02;;;;;;;;;;;;;;;15.32;89.49;101874.28;5022935;28;20170;-55
2023/08/11 04:30:27;;;;;;;;;;;;;;;15.32;89.62;101879.53;5023761;28;19963;-55
2023/08/11 04:32:53;;;;;;;;;;;;;;;15.31;90.04;101875.16;5024027;28;20098;-55
2023/08/11 04:35:18;;;;;;;;;;;;;;;15.30;89.67;101876.00;5023252;28;19909;-55
2023/08/11 04:37:43;;;;;;;;;;;;;;;15.29;89.80;101876.84;5022287;28;19913;-55
2023/08/11 04:40:11;;;;;;;;;;;;;;;15.27;89.87;101875.94;5021147;28;19909;-55
2023/08/11 04:42:42;;;;;;;;;;;;;;;15.25;90.15;101873.28;5023432;28;19929;-55
2023/08/11 04:45:12;;;;;;;;;;;;;;;15.27;90.01;101873.31;5021718;28;20159;-55
2023/08/11 04:47:37;;;;;;;;;;;;;;;15.26;90.12;101875.03;5022735;28;19910;-54
2023/08/11 04:50:02;;;;;;;;;;;;;;;15.28;90.27;101869.84;5024136;28;20071;-55
2023/08/11 04:52:28;;;;;;;;;;;;;;;15.28;90.37;101864.59;5020376;28;19918;-55
2023/08/11 04:54:53;;;;;;;;;;;;;;;15.26;90.30;101861.03;5022819;28;19909;-55
2023/08/11 04:57:18;;;;;;;;;;;;;;;15.24;90.20;101855.75;5015635;28;19926;-56
2023/08/11 04:59:45;;;;;;;;;;;;;;;15.25;90.59;101860.16;5021173;28;19944;-55
2023/08/11 05:02:11;;;;;;;;;;;;;;;15.26;90.65;101851.41;5022293;28;19932;-55
2023/08/11 05:04:36;;;;;;;;;;;;;;;15.26;90.80;101846.16;5022036;28;20063;-55
2023/08/11 05:07:01;;;;;;;;;;;;;;;15.26;90.57;101847.91;5023354;28;19909;-55
2023/08/11 05:09:26;;;;;;;;;;;;;;;15.25;90.82;101846.13;5020988;28;19980;-55
2023/08/11 05:11:52;;;;;;;;;;;;;;;15.26;91.08;101850.53;5022475;28;19945;-55
2023/08/11 05:14:17;;;;;;;;;;;;;;;15.28;90.84;101854.09;5021930;28;20178;-55
2023/08/11 05:16:43;;;;;;;;;;;;;;;15.29;90.96;101845.34;5019765;28;19916;-55
2023/08/11 05:19:09;;;;;;;;;;;;;;;15.29;91.23;101846.25;5022130;28;20166;-55
2023/08/11 05:21:34;;;;;;;;;;;;;;;15.31;91.14;101846.28;5021858;28;19921;-55
2023/08/11 05:23:59;;;;;;;;;;;;;;;15.32;91.67;101848.03;5021932;28;20165;-56
2023/08/11 05:26:25;;;;;;;;;;;;;;;15.33;91.31;101851.56;5022564;28;19941;-55
2023/08/11 05:28:50;;;;;;;;;;;;;;;15.32;91.71;101848.03;5021317;28;19940;-53
2023/08/11 05:31:15;;;;;;;;;;;;;;;15.32;91.98;101842.78;5022177;28;20019;-55
2023/08/11 05:33:40;;;;;;;;;;;;;;;15.32;91.60;101848.03;5021673;28;19968;-55
2023/08/11 05:36:07;;;;;;;;;;;;;;;15.33;91.47;101841.06;5022355;28;20154;-55
2023/08/11 05:38:32;;;;;;;;;;;;;;;15.34;91.95;101842.81;5023426;28;19906;-56
2023/08/11 05:40:57;;;;;;;;;;;;;;;15.35;92.50;101841.97;5021479;28;19916;-55
2023/08/11 05:43:22;;;;;;;;;;;;;;;15.33;92.12;101841.94;5022288;28;19928;-55
2023/08/11 05:45:47;;;;;;;;;;;;;;;15.34;92.80;101837.56;5023166;28;19917;-55
2023/08/11 05:48:13;;;;;;;;;;;;;;;15.34;92.90;101838.47;5004268;28;20200;-55
2023/08/11 05:50:39;;;;;;;;;;;;;;;15.37;93.00;101840.25;5022310;28;19932;-55
2023/08/11 05:53:04;;;;;;;;;;;;;;;15.40;92.93;101833.31;5021594;28;20158;-55
2023/08/11 05:55:30;;;;;;;;;;;;;;;15.44;93.33;101837.78;5021485;28;19988;-55
2023/08/11 05:57:55;;;;;;;;;;;;;;;15.48;93.55;101839.63;5021759;28;19909;-55
2023/08/11 06:00:20;;;;;;;;;;;;;;;15.54;92.75;101837.94;5021973;28;19927;-55
2023/08/11 06:02:45;;;;;;;;;;;;;;;15.54;93.46;101841.47;5020078;28;19974;-55
2023/08/11 06:05:15;;;;;;;;;;;;;;;15.56;93.31;101836.25;5022338;28;19909;-55
2023/08/11 06:07:40;;;;;;;;;;;;;;;15.61;94.19;101834.56;5025670;28;19910;-55
2023/08/11 06:10:06;;;;;;;;;;;;;;;15.63;93.43;101844.25;5026355;28;19988;-54
2023/08/11 06:12:31;;;;;;;;;;;;;;;15.68;95.16;101840.84;5024423;28;19909;-54
2023/08/11 06:14:57;;;;;;;;;;;;;;;15.71;94.63;101839.13;5024395;28;19916;-55
2023/08/11 06:17:22;;;;;;;;;;;;;;;15.75;94.64;101838.34;5025776;28;20101;-54
2023/08/11 06:19:47;;;;;;;;;;;;;;;15.81;94.11;101843.78;5026122;28;20143;-55
2023/08/11 06:22:13;;;;;;;;;;;;;;;15.86;95.08;101843.84;5022968;28;20071;-55
2023/08/11 06:24:38;;;;;;;;;;;;;;;15.92;95.75;101843.06;5025869;28;20063;-55
2023/08/11 06:27:03;;;;;;;;;;;;;;;15.97;95.18;101836.13;5024068;28;20097;-56
2023/08/11 06:29:29;;;;;;;;;;;;;;;16.03;94.78;101844.13;5025881;28;19909;-55
2023/08/11 06:31:54;;;;;;;;;;;;;;;16.10;94.93;101843.34;5006715;28;19921;-55
2023/08/11 06:34:20;;;;;;;;;;;;;;;16.17;96.17;101837.34;5025508;28;19917;-55
2023/08/11 06:36:46;;;;;;;;;;;;;;;16.28;95.79;101831.38;5025141;28;19975;-55
2023/08/11 06:39:11;;;;;;;;;;;;;;;16.39;95.79;101848.22;5024985;28;20106;-55
2023/08/11 06:41:36;;;;;;;;;;;;;;;16.50;96.10;101843.13;5023752;28;20270;-56
2023/08/11 06:44:01;;;;;;;;;;;;;;;16.66;96.55;101846.88;5023689;28;20139;-56
2023/08/11 06:46:27;;;;;;;;;;;;;;;16.80;98.15;101850.59;5026281;28;19912;-56
2023/08/11 06:48:52;;;;;;;;;;;;;;;16.90;96.85;101858.63;5026126;28;19909;-55
2023/08/11 06:51:17;;;;;;;;;;;;;;;16.96;95.35;101858.72;5025649;28;20043;-55
2023/08/11 06:53:42;;;;;;;;;;;;;;;17.08;97.58;101858.03;5007944;28;19957;-55
2023/08/11 06:56:08;;;;;;;;;;;;;;;17.23;95.55;101865.22;5024078;28;19913;-55
2023/08/11 06:58:33;;;;;;;;;;;;;;;17.38;95.99;101854.88;5026156;28;19913;-55
2023/08/11 07:00:59;;;;;;;;;;;;;;;17.50;96.51;101860.28;5026163;28;19928;-56
2023/08/11 07:03:24;;;;;;;;;;;;;;;17.61;96.66;101860.41;5024270;28;19909;-56
2023/08/11 07:05:51;;;;;;;;;;;;;;;17.73;95.57;101864.91;5025526;28;19955;-56
2023/08/11 07:08:16;;;;;;;;;;;;;;;17.82;94.74;101857.09;5026137;28;19905;-55
2023/08/11 07:10:42;;;;;;;;;;;;;;;17.92;93.65;101860.75;5025867;28;19910;-55
2023/08/11 07:13:07;;;;;;;;;;;;;;;18.01;94.29;101860.81;5024032;28;19909;-56
2023/08/11 07:15:32;;;;;;;;;;;;;;;18.11;94.81;101859.16;5025169;28;19969;-55
2023/08/11 07:17:57;;;;;;;;;;;;;;;18.22;94.73;101868.03;5024831;28;20058;-56
2023/08/11 07:20:22;;;;;;;;;;;;;;;18.32;94.38;101868.09;5023266;28;20198;-56
2023/08/11 07:22:48;;;;;;;;;;;;;;;18.43;94.51;101858.53;5021863;28;19948;-56
2023/08/11 07:25:13;;;;;;;;;;;;;;;18.54;94.56;101858.63;5023070;28;20151;-56
2023/08/11 07:27:38;;;;;;;;;;;;;;;18.65;93.62;101861.31;5025223;28;20151;-56
2023/08/11 07:30:04;;;;;;;;;;;;;;;18.78;94.63;101863.16;5022995;28;20036;-56
2023/08/11 07:32:29;;;;;;;;;;;;;;;18.88;93.21;101865.00;5020718;28;19917;-55
2023/08/11 07:34:54;;;;;;;;;;;;;;;18.99;93.39;101866.81;5020591;28;20162;-56
2023/08/11 07:37:20;;;;;;;;;;;;;;;19.09;93.54;101868.66;5020614;28;19909;-56
2023/08/11 07:39:45;;;;;;;;;;;;;;;19.22;91.91;101869.56;5023212;28;19976;-56
2023/08/11 07:42:10;;;;;;;;;;;;;;;19.36;91.86;101866.97;5024233;28;19985;-56
2023/08/11 07:44:35;;;;;;;;;;;;;;;19.47;91.75;101867.91;5023046;28;19913;-58
2023/08/11 07:47:01;;;;;;;;;;;;;;;19.56;90.56;101865.28;5021186;28;20139;-56
2023/08/11 07:49:27;;;;;;;;;;;;;;;19.64;89.03;101867.94;5024809;28;19957;-56
2023/08/11 07:51:52;;;;;;;;;;;;;;;19.72;89.18;101873.25;5023941;28;20139;-56
2023/08/11 07:54:17;;;;;;;;;;;;;;;19.81;88.18;101878.56;5024269;28;19916;-57
2023/08/11 07:56:43;;;;;;;;;;;;;;;19.93;88.53;101878.63;5024017;28;19921;-56
2023/08/11 07:59:08;;;;;;;;;;;;;;;20.08;87.25;101872.44;5024636;28;19905;-56
2023/08/11 08:01:33;;;;;;;;;;;;;;;20.22;87.41;101868.91;5020803;28;20008;-57
2023/08/11 08:03:59;;;;;;;;;;;;;;;20.35;86.84;101867.16;5023684;28;19905;-57
2023/08/11 08:06:24;;;;;;;;;;;;;;;20.49;86.51;101866.28;5024659;28;20192;-56
2023/08/11 08:08:50;;;;;;;;;;;;;;;20.71;86.55;101868.00;5020984;28;19918;-56
2023/08/11 08:11:15;;;;;;;;;;;;;;;20.91;84.45;101868.84;5021555;28;19984;-57
2023/08/11 08:13:40;;;;;;;;;;;;;;;21.11;84.62;101865.25;5023146;28;20151;-57
2023/08/11 08:16:06;;;;;;;;;;;;;;;21.26;82.64;101867.84;5018848;28;19917;-57
2023/08/11 08:18:31;;;;;;;;;;;;;;;21.39;82.74;101866.00;5016843;28;19909;-55
2023/08/11 08:20:56;;;;;;;;;;;;;;;21.50;82.00;101858.00;5020500;28;20059;-57
2023/08/11 08:23:22;;;;;;;;;;;;;;;21.60;80.61;101864.16;5024677;28;19905;-56
2023/08/11 08:25:47;;;;;;;;;;;;;;;21.75;81.49;101864.06;5022403;28;19931;-56
2023/08/11 08:28:12;;;;;;;;;;;;;;;21.85;80.19;101862.22;5018749;28;19951;-57
2023/08/11 08:30:37;;;;;;;;;;;;;;;21.97;80.84;101856.84;5018528;28;19922;-57
2023/08/11 08:33:03;;;;;;;;;;;;;;;22.18;81.35;101862.88;5020523;28;19939;-56
2023/08/11 08:35:28;;;;;;;;;;;;;;;22.36;76.25;101862.75;5023959;28;19952;-57
2023/08/11 08:37:53;;;;;;;;;;;;;;;22.48;78.44;101863.50;5020403;28;19909;-57
2023/08/11 08:40:19;;;;;;;;;;;;;;;22.58;78.85;101868.72;5023987;28;19905;-56
2023/08/11 08:42:44;;;;;;;;;;;;;;;22.66;76.59;101865.97;5023936;28;19947;-57
2023/08/11 08:45:09;;;;;;;;;;;;;;;22.80;77.00;101859.66;5021549;28;19913;-57
2023/08/11 08:47:35;;;;;;;;;;;;;;;23.02;77.50;101866.47;5020863;28;19909;-57
2023/08/11 08:50:02;;;;;;;;;;;;;;;23.20;75.72;101875.13;5021321;28;19916;-56
2023/08/11 08:52:27;;;;;;;;;;;;;;;23.37;74.31;101865.16;5006770;28;20096;-57
2023/08/11 08:54:53;;;;;;;;;;;;;;;23.51;74.81;101864.97;5017005;28;19917;-57
2023/08/11 08:57:20;;;;;;;;;;;;;;;23.63;73.11;101858.59;5019623;28;19932;-57
2023/08/11 08:59:45;;;;;;;;;;;;;;;23.68;71.52;101859.41;5017120;28;19909;-57
2023/08/11 09:02:11;;;;;;;;;;;;;;;23.84;71.89;101867.16;5021865;28;20193;-57
2023/08/11 09:04:37;;;;;;;;;;;;;;;24.00;71.20;101863.41;5021670;28;19983;-58
2023/08/11 09:07:02;;;;;;;;;;;;;;;24.07;72.12;101861.50;5018576;28;20143;-58
2023/08/11 09:09:28;;;;;;;;;;;;;;;24.19;71.73;101860.41;5015200;28;20190;-58
2023/08/11 09:11:53;;;;;;;;;;;;;;;24.33;70.99;101858.38;5018945;28;19929;-58
2023/08/11 09:14:19;;;;;;;;;;;;;;;24.45;71.35;101854.63;5021550;28;20055;-58
2023/08/11 09:16:45;;;;;;;;;;;;;;;24.52;72.19;101860.72;5017280;28;19910;-58
2023/08/11 09:19:11;;;;;;;;;;;;;;;24.60;71.87;101862.34;5020341;28;19909;-58
2023/08/11 09:21:37;;;;;;;;;;;;;;;24.72;71.55;101861.25;5023050;28;19906;-58
2023/08/11 09:24:02;;;;;;;;;;;;;;;24.93;69.26;101861.75;5022108;28;19936;-58
2023/08/11 09:26:28;;;;;;;;;;;;;;;25.07;69.63;101858.78;5023102;28;19911;-58
2023/08/11 09:28:54;;;;;;;;;;;;;;;25.19;70.27;101855.88;5021927;28;20098;-58
2023/08/11 09:31:23;;;;;;;;;;;;;;;25.31;68.78;101857.41;5019687;28;20113;-58
2023/08/11 09:33:48;;;;;;;;;;;;;;;25.47;69.58;101848.16;5018698;28;19985;-58
2023/08/11 09:36:14;;;;;;;;;;;;;;;25.60;65.11;101853.22;5018156;28;19917;-58
2023/08/11 09:38:43;;;;;;;;;;;;;;;25.53;64.84;101852.47;5013645;28;19909;-59
2023/08/11 09:41:08;;;;;;;;;;;;;;;25.60;69.06;101850.56;5019238;28;20101;-58
2023/08/11 09:43:34;;;;;;;;;;;;;;;25.74;68.12;101848.44;4999453;28;20181;-59
2023/08/11 09:46:00;;;;;;;;;;;;;;;25.85;67.89;101848.16;5017466;28;19917;-59
2023/08/11 09:48:26;;;;;;;;;;;;;;;25.85;68.13;101841.03;5016803;28;19917;-59
2023/08/11 09:50:51;;;;;;;;;;;;;;;25.88;66.20;101841.88;5020726;28;19915;-59
2023/08/11 09:53:18;;;;;;;;;;;;;;;25.80;64.28;101848.28;5016286;28;20051;-59
2023/08/11 09:55:43;;;;;;;;;;;;;;;25.75;67.75;101849.31;5019014;28;19971;-58
2023/08/11 09:58:10;;;;;;;;;;;;;;;25.86;67.10;101848.13;5021764;28;20166;-58
2023/08/11 10:00:36;;;;;;;;;;;;;;;25.93;65.08;101848.00;5021654;28;19992;-59
2023/08/11 10:03:05;;;;;;;;;;;;;;;26.09;62.87;101846.72;5018964;28;19932;-59
2023/08/11 10:05:33;;;;;;;;;;;;;;;26.26;64.73;101846.28;5022616;28;19993;-59
2023/08/11 10:08:00;;;;;;;;;;;;;;;26.37;60.29;101849.56;5005392;28;19912;-59
2023/08/11 10:10:27;;;;;;;;;;;;;;;26.24;62.06;101853.44;5022933;28;19941;-59
2023/08/11 10:12:56;;;;;;;;;;;;;;;26.19;63.70;101856.25;5021540;28;20155;-59
2023/08/11 10:15:22;;;;;;;;;;;;;;;26.36;63.54;101849.59;5022485;28;19915;-58
2023/08/11 10:17:48;;;;;;;;;;;;;;;26.54;64.18;101853.56;5022732;28;19905;-58
2023/08/11 10:20:28;;;;;;;;;;;;;;;26.74;63.32;101850.38;5022847;28;19925;-59
2023/08/11 10:22:53;;;;;;;;;;;;;;;26.93;62.64;101845.38;5006772;28;19913;-57
2023/08/11 10:25:18;;;;;;;;;;;;;;;27.03;63.25;101844.16;5021831;28;19915;-57
2023/08/11 10:27:44;;;;;;;;;;;;;;;27.11;63.81;101845.75;5023394;28;19972;-57
2023/08/11 10:30:11;;;;;;;;;;;;;;;27.34;61.38;101847.75;5023175;28;19952;-57
2023/08/11 10:32:36;;;;;;;;;;;;;;;27.46;62.61;101846.50;5021796;28;19906;-58
2023/08/11 10:35:01;;;;;;;;;;;;;;;27.57;62.68;101829.16;5023585;28;19960;-58
2023/08/11 10:37:31;;;;;;;;;;;;;;;27.74;61.35;101833.97;5022725;28;20079;-58
2023/08/11 10:40:07;;;;;;;;;;;;;;;27.90;61.89;101836.16;5022270;28;20013;-59
2023/08/11 10:42:36;;;;;;;;;;;;;;;28.03;58.69;101836.66;5022339;28;19909;-59
2023/08/11 10:45:06;;;;;;;;;;;;;;;28.05;57.23;101840.13;5022907;28;20065;-59
2023/08/11 10:47:32;;;;;;;;;;;;;;;28.14;57.38;101833.59;5022501;28;20143;-59
2023/08/11 10:49:58;;;;;;;;;;;;;;;28.25;57.59;101832.28;5023102;28;19929;-59
2023/08/11 10:52:23;;;;;;;;;;;;;;;28.19;57.15;101832.50;5026162;28;19928;-59
2023/08/11 10:54:50;;;;;;;;;;;;;;;28.25;58.46;101836.78;5024417;28;20154;-59
2023/08/11 10:57:15;;;;;;;;;;;;;;;28.44;59.02;101837.88;5025969;28;19910;-59
2023/08/11 10:59:43;;;;;;;;;;;;;;;28.72;55.48;101842.28;5026180;28;19969;-59
2023/08/11 11:02:08;;;;;;;;;;;;;;;28.79;58.09;101834.88;5021172;28;19976;-58
2023/08/11 11:04:34;;;;;;;;;;;;;;;28.93;53.35;101829.84;5022427;28;19921;-59
2023/08/11 11:07:00;;;;;;;;;;;;;;;28.92;52.48;101828.13;5024456;28;20147;-58
2023/08/11 11:09:27;;;;;;;;;;;;;;;28.73;54.72;101817.19;5017148;28;19910;-59
2023/08/11 11:11:53;;;;;;;;;;;;;;;28.57;56.54;101826.72;5026015;28;20135;-59
2023/08/11 11:14:18;;;;;;;;;;;;;;;28.64;54.89;101832.78;5024930;28;20017;-59
2023/08/11 11:16:43;;;;;;;;;;;;;;;28.83;54.38;101831.13;5020228;28;19976;-59
2023/08/11 11:19:09;;;;;;;;;;;;;;;28.85;55.57;101826.59;5022666;28;19905;-59
2023/08/11 11:21:35;;;;;;;;;;;;;;;28.99;56.11;101827.88;5026180;28;19916;-58
2023/08/11 11:24:00;;;;;;;;;;;;;;;29.19;55.19;101827.97;5023774;28;19948;-59
2023/08/11 11:26:29;;;;;;;;;;;;;;;29.38;54.67;101828.16;5023798;28;19917;-59
2023/08/11 11:28:56;;;;;;;;;;;;;;;29.50;54.97;101832.16;5023707;28;19972;-59
2023/08/11 11:31:22;;;;;;;;;;;;;;;29.53;54.54;101828.47;5023521;28;20063;-59
2023/08/11 11:33:48;;;;;;;;;;;;;;;29.39;51.40;101826.38;5025146;28;19905;-59
2023/08/11 11:36:13;;;;;;;;;;;;;;;29.12;52.47;101834.53;5025505;28;19929;-59
2023/08/11 11:38:39;;;;;;;;;;;;;;;29.06;55.11;101829.41;5006989;28;19937;-59
2023/08/11 11:41:08;;;;;;;;;;;;;;;28.98;55.60;101821.63;5024056;28;20306;-59
2023/08/11 11:43:34;;;;;;;;;;;;;;;28.83;54.89;101823.09;5019781;28;19909;-59
2023/08/11 11:45:59;;;;;;;;;;;;;;;28.70;54.14;101822.66;5024015;28;19932;-59
2023/08/11 11:48:24;;;;;;;;;;;;;;;28.65;55.32;101821.97;5022352;28;19980;-59
2023/08/11 11:50:50;;;;;;;;;;;;;;;28.51;53.66;101816.22;5021922;28;19917;-59
2023/08/11 11:53:16;;;;;;;;;;;;;;;28.41;56.07;101821.03;5021399;28;19925;-59
2023/08/11 11:55:45;;;;;;;;;;;;;;;28.67;55.89;101811.19;5025251;28;19905;-58
2023/08/11 11:58:14;;;;;;;;;;;;;;;28.88;54.31;101809.50;5024202;28;20023;-59
2023/08/11 12:00:39;;;;;;;;;;;;;;;28.78;54.41;101815.22;5023542;28;19928;-59
2023/08/11 12:03:04;;;;;;;;;;;;;;;28.75;55.80;101822.50;5022882;28;19976;-59
2023/08/11 12:05:30;;;;;;;;;;;;;;;29.01;55.96;101823.31;5021378;28;20027;-59
2023/08/11 12:07:55;;;;;;;;;;;;;;;29.28;54.20;101818.72;5022444;28;19925;-59
2023/08/11 12:10:30;;;;;;;;;;;;;;;29.42;55.51;101823.56;5023239;28;19932;-60
2023/08/11 12:12:59;;;;;;;;;;;;;;;29.72;54.70;101818.75;5020661;28;20174;-59
2023/08/11 12:15:24;;;;;;;;;;;;;;;29.89;52.89;101806.44;5022122;28;19925;-59
2023/08/11 12:17:50;;;;;;;;;;;;;;;29.89;53.45;101815.34;5023446;28;19916;-59
2023/08/11 12:20:15;;;;;;;;;;;;;;;29.96;52.77;101805.22;5023117;28;19909;-59
2023/08/11 12:22:40;;;;;;;;;;;;;;;29.83;51.46;101812.94;5022853;28;19909;-59
2023/08/11 12:25:06;;;;;;;;;;;;;;;29.78;50.94;101804.19;5023847;28;19909;-59
2023/08/11 12:27:31;;;;;;;;;;;;;;;29.72;53.69;101802.63;5024528;28;19969;-59